Archival Weather

Václav Havel Intl Apt

Prague, Czechia (LKPR)

Report from: Monday, May 29, 2023 6:00 AM CEST
Current time: Saturday, February 24, 2024 5:49 PM CET

Current weather – Weather history – Daily summaries
Weather forecast

Temperature8.0°C (46.4°F)
Dew point4.0°C (39.2°F)
Winds 1 kts (0.5 m/s, 1.2 mph) West (280°)
Clouds Sky clear
Altimeter30.09 in.Hg (1019 mB)
Relative humidity76 %
Density altitude-916 ft. (-279 m)
Remarks Ceiling and visibility OK
No significant changes expected in the next two hours
Flight conditions Visual Meteorological Conditions
Raw dataLKPR 290400Z 28001KT CAVOK 08/04 Q1019 NOSIG
An error has occurred. This application may no longer respond until reloaded. Reload 🗙